createdAt,value
2022-10-16T00:02:41.133Z,99035.47
2022-10-16T00:06:42.641Z,99032.84
2022-10-16T00:10:43.952Z,99030.28
2022-10-16T00:14:45.241Z,99037.25
2022-10-16T00:18:47.042Z,99043.44
2022-10-16T00:22:48.276Z,99035.59
2022-10-16T00:26:50.545Z,99036.50
2022-10-16T00:30:51.910Z,99040.81
2022-10-16T00:34:55.908Z,99041.72
2022-10-16T00:43:02.539Z,99045.09
2022-10-16T00:47:03.776Z,99042.50
2022-10-16T00:51:06.842Z,99045.09
2022-10-16T00:55:09.409Z,99050.34
2022-10-16T00:59:18.892Z,99058.19
2022-10-16T01:03:38.360Z,99059.03
2022-10-16T01:07:42.738Z,99045.06
2022-10-16T01:11:56.888Z,99055.56
2022-10-16T01:16:30.451Z,99056.53
2022-10-16T01:20:33.185Z,99079.25
2022-10-16T01:24:40.507Z,99075.78
2022-10-16T01:28:54.283Z,99068.81
2022-10-16T01:32:55.566Z,99055.72
2022-10-16T01:37:08.640Z,99056.59
2022-10-16T01:41:29.826Z,99067.97
2022-10-16T01:45:32.713Z,99081.09
2022-10-16T01:49:36.661Z,99072.34
2022-10-16T01:53:38.436Z,99078.50
2022-10-16T01:57:42.209Z,99082.81
2022-10-16T02:01:46.200Z,99072.34
2022-10-16T02:05:52.776Z,99070.66
2022-10-16T02:09:55.208Z,99065.50
2022-10-16T02:13:59.696Z,99073.44
2022-10-16T02:18:01.044Z,99082.19
2022-10-16T02:22:05.388Z,99075.28
2022-10-16T02:26:09.984Z,99077.91
2022-10-16T02:30:20.185Z,99074.53
2022-10-16T02:34:22.432Z,99084.13
2022-10-16T02:38:24.716Z,99079.75
2022-10-16T02:42:30.736Z,99081.56
2022-10-16T02:46:32.399Z,99093.78
2022-10-16T02:50:33.900Z,99087.69
2022-10-16T02:54:35.189Z,99083.41
2022-10-16T02:58:36.602Z,99107.75
2022-10-16T03:02:38.592Z,99088.53
2022-10-16T03:06:39.854Z,99106.88
2022-10-16T03:10:41.125Z,99099.91
2022-10-16T03:14:42.393Z,99094.63
2022-10-16T03:18:43.824Z,99098.16
2022-10-16T03:22:45.080Z,99093.75
2022-10-16T03:26:46.377Z,99097.22
2022-10-16T03:30:47.763Z,99097.22
2022-10-16T03:34:49.089Z,99099.00
2022-10-16T03:38:50.633Z,99089.41
2022-10-16T03:42:52.284Z,99092.91
2022-10-16T03:46:53.753Z,99091.19
2022-10-16T03:50:56.168Z,99083.38
2022-10-16T03:54:57.388Z,99074.66
2022-10-16T03:58:58.681Z,99082.50
2022-10-16T04:02:59.934Z,99088.63
2022-10-16T04:07:01.233Z,99101.78
2022-10-16T04:11:02.532Z,99097.41
2022-10-16T04:15:03.945Z,99102.69
2022-10-16T04:19:05.266Z,99100.88
2022-10-16T04:23:06.851Z,99113.16
2022-10-16T04:27:08.277Z,99104.44
2022-10-16T04:31:09.570Z,99114.00
2022-10-16T04:35:10.843Z,99112.28
2022-10-16T04:39:12.089Z,99114.03
2022-10-16T04:43:13.392Z,99112.28
2022-10-16T04:47:14.809Z,99108.81
2022-10-16T04:51:16.045Z,99089.66
2022-10-16T04:55:17.431Z,99107.09
2022-10-16T04:59:19.417Z,99111.53
2022-10-16T05:03:20.841Z,99106.34
2022-10-16T05:07:22.181Z,99114.22
2022-10-16T05:11:23.476Z,99115.13
2022-10-16T05:15:25.911Z,99113.34
2022-10-16T05:19:28.376Z,99108.09
2022-10-16T05:23:30.364Z,99115.88
2022-10-16T05:27:31.696Z,99106.28
2022-10-16T05:31:32.981Z,99107.16
2022-10-16T05:35:34.878Z,99124.53
2022-10-16T05:39:37.727Z,99132.44
2022-10-16T05:43:38.968Z,99134.19
2022-10-16T05:47:40.728Z,99133.28
2022-10-16T05:51:42.436Z,99117.59
2022-10-16T05:55:43.714Z,99113.22
2022-10-16T05:59:45.013Z,99128.06
2022-10-16T06:03:46.336Z,99129.84
2022-10-16T06:07:47.648Z,99129.00
2022-10-16T06:11:48.892Z,99128.09
2022-10-16T06:15:50.720Z,99132.44
2022-10-16T06:19:52.013Z,99132.44
2022-10-16T06:23:53.958Z,99136.84
2022-10-16T06:27:55.816Z,99142.03
2022-10-16T06:31:58.530Z,99141.16
2022-10-16T06:36:06.893Z,99157.78
2022-10-16T06:40:08.485Z,99167.41
2022-10-16T06:44:11.545Z,99165.63
2022-10-16T06:48:13.124Z,99185.56
2022-10-16T06:52:15.850Z,99194.22
2022-10-16T06:56:21.653Z,99187.06
2022-10-16T07:00:25.849Z,99207.81
2022-10-16T07:04:27.485Z,99222.44
2022-10-16T07:08:28.719Z,99219.66
2022-10-16T07:12:30.009Z,99215.22
2022-10-16T07:16:32.512Z,99222.09
2022-10-16T07:20:34.089Z,99237.63
2022-10-16T07:24:35.389Z,99254.03
2022-10-16T07:28:36.730Z,99252.94
2022-10-16T07:32:38.020Z,99262.31
2022-10-16T07:36:39.446Z,99262.06
2022-10-16T07:40:40.708Z,99268.00
2022-10-16T07:44:42.411Z,99274.81
2022-10-16T07:48:46.660Z,99263.25
2022-10-16T07:52:47.982Z,99266.50
2022-10-16T07:56:49.226Z,99288.06
2022-10-16T08:00:50.541Z,99294.94
2022-10-16T08:04:51.801Z,99305.47
2022-10-16T08:08:53.147Z,99308.69
2022-10-16T08:12:54.459Z,99306.66
2022-10-16T08:16:55.838Z,99314.19
2022-10-16T08:20:58.664Z,99311.16
2022-10-16T08:25:00.297Z,99310.72
2022-10-16T08:29:01.661Z,99323.25
2022-10-16T08:33:03.329Z,99316.53
2022-10-16T08:37:04.589Z,99328.34
2022-10-16T08:41:33.218Z,99338.53
2022-10-16T08:45:40.167Z,99348.75
2022-10-16T08:53:52.719Z,99355.34
2022-10-16T08:57:54.132Z,99349.97
2022-10-16T09:01:55.765Z,99348.09
2022-10-16T09:06:06.117Z,99347.50
2022-10-16T09:10:13.356Z,99342.66
2022-10-16T09:14:37.424Z,99349.38
2022-10-16T09:18:38.823Z,99352.66
2022-10-16T09:22:40.424Z,99365.44
2022-10-16T09:26:43.466Z,99358.91
2022-10-16T09:30:45.680Z,99358.91
2022-10-16T09:34:57.974Z,99372.44
2022-10-16T09:39:10.370Z,99379.16
2022-10-16T09:43:17.807Z,99365.38
2022-10-16T09:47:21.345Z,99363.41
2022-10-16T09:51:38.935Z,99368.75
2022-10-16T09:55:53.765Z,99371.16
2022-10-16T09:59:56.423Z,99371.84
2022-10-16T10:04:02.013Z,99377.75
2022-10-16T10:08:07.328Z,99372.91
2022-10-16T10:12:38.256Z,99377.56
2022-10-16T10:16:39.600Z,99379.22
2022-10-16T10:20:41.559Z,99384.09
2022-10-16T10:24:42.800Z,99381.84
2022-10-16T10:28:50.869Z,99385.00
2022-10-16T10:32:52.103Z,99389.44
2022-10-16T10:36:59.220Z,99387.78
2022-10-16T10:41:03.799Z,99393.34
2022-10-16T10:45:05.094Z,99383.63
2022-10-16T10:49:06.365Z,99382.66
2022-10-16T10:53:22.548Z,99384.97
2022-10-16T10:57:40.519Z,99392.00
2022-10-16T11:01:50.873Z,99397.59
2022-10-16T11:06:10.920Z,99389.19
2022-10-16T11:10:22.887Z,99394.22
2022-10-16T11:14:32.086Z,99406.34
2022-10-16T11:18:41.523Z,99397.72
2022-10-16T11:22:42.747Z,99394.25
2022-10-16T11:26:44.984Z,99394.50
2022-10-16T11:31:01.456Z,99384.34
2022-10-16T11:35:16.778Z,99380.88
2022-10-16T11:39:22.546Z,99373.81
2022-10-16T11:43:29.869Z,99372.59
2022-10-16T11:47:57.513Z,99378.66
2022-10-16T11:51:59.168Z,99370.88
2022-10-16T11:56:00.593Z,99354.31
2022-10-16T12:00:05.002Z,99350.56
2022-10-16T12:04:26.227Z,99351.34
2022-10-16T12:08:28.349Z,99354.78
2022-10-16T12:12:36.977Z,99356.41
2022-10-16T12:16:39.861Z,99341.22
2022-10-16T12:20:46.828Z,99342.66
2022-10-16T12:24:51.947Z,99344.03
2022-10-16T12:28:53.659Z,99349.53
2022-10-16T12:32:56.604Z,99350.03
2022-10-16T12:37:09.392Z,99353.13
2022-10-16T12:41:11.757Z,99349.16
2022-10-16T12:45:32.653Z,99346.16
2022-10-16T12:49:39.600Z,99340.53
2022-10-16T12:53:40.880Z,99346.75
2022-10-16T12:57:45.233Z,99357.28
2022-10-16T13:01:52.266Z,99362.25
2022-10-16T13:06:12.465Z,99361.47
2022-10-16T13:10:29.438Z,99355.91
2022-10-16T13:14:45.126Z,99361.84
2022-10-16T13:19:12.357Z,99363.34
2022-10-16T13:23:13.700Z,99364.16
2022-10-16T13:27:23.042Z,99360.66
2022-10-16T13:31:25.547Z,99356.13
2022-10-16T13:35:28.615Z,99347.94
2022-10-16T13:39:31.087Z,99353.53
2022-10-16T13:43:40.205Z,99351.00
2022-10-16T13:47:41.508Z,99341.06
2022-10-16T13:51:42.893Z,99342.22
2022-10-16T13:55:44.330Z,99342.94
2022-10-16T13:59:45.587Z,99334.09
2022-10-16T14:03:47.874Z,99333.31
2022-10-16T14:07:50.994Z,99338.09
2022-10-16T14:11:54.923Z,99339.13
2022-10-16T14:15:59.530Z,99334.72
2022-10-16T14:20:06.769Z,99334.41
2022-10-16T14:24:23.313Z,99335.78
2022-10-16T14:28:24.827Z,99337.72
2022-10-16T14:32:26.533Z,99338.56
2022-10-16T14:36:29.113Z,99342.19
2022-10-16T14:40:35.716Z,99346.53
2022-10-16T14:44:37.684Z,99343.19
2022-10-16T14:48:41.996Z,99349.44
2022-10-16T14:52:44.407Z,99346.00
2022-10-16T14:56:47.767Z,99338.38
2022-10-16T15:00:49.676Z,99343.78
2022-10-16T15:04:51.159Z,99341.16
2022-10-16T15:08:52.493Z,99341.94
2022-10-16T15:12:54.201Z,99341.66
2022-10-16T15:16:55.895Z,99338.28
2022-10-16T15:20:57.184Z,99328.19
2022-10-16T15:24:58.469Z,99335.75
2022-10-16T15:28:59.751Z,99317.13
2022-10-16T15:33:01.035Z,99327.88
2022-10-16T15:37:05.548Z,99325.91
2022-10-16T15:41:06.844Z,99327.44
2022-10-16T15:45:09.428Z,99328.63
2022-10-16T15:49:10.998Z,99325.81
2022-10-16T15:53:12.343Z,99319.50
2022-10-16T15:57:13.796Z,99325.59
2022-10-16T16:01:15.130Z,99327.25
2022-10-16T16:05:16.428Z,99319.31
2022-10-16T16:09:17.705Z,99329.63
2022-10-16T16:13:19.102Z,99320.91
2022-10-16T16:17:20.354Z,99323.28
2022-10-16T16:21:21.788Z,99326.47
2022-10-16T16:25:23.094Z,99338.31
2022-10-16T16:29:24.385Z,99334.63
2022-10-16T16:33:25.775Z,99333.50
2022-10-16T16:37:27.199Z,99338.41
2022-10-16T16:41:30.730Z,99352.03
2022-10-16T16:45:35.798Z,99358.69
2022-10-16T16:49:37.126Z,99355.69
2022-10-16T16:53:38.450Z,99361.31
2022-10-16T16:57:39.801Z,99367.72
2022-10-16T17:01:41.359Z,99380.28
2022-10-16T17:05:42.641Z,99384.97
2022-10-16T17:09:44.176Z,99393.91
2022-10-16T17:13:45.918Z,99392.41
2022-10-16T17:17:47.281Z,99397.84
2022-10-16T17:21:49.285Z,99399.84
2022-10-16T17:25:50.592Z,99401.78
2022-10-16T17:29:52.287Z,99418.53
2022-10-16T17:33:53.789Z,99408.31
2022-10-16T17:37:55.029Z,99421.59
2022-10-16T17:41:56.631Z,99419.09
2022-10-16T17:45:57.880Z,99418.44
2022-10-16T17:49:59.468Z,99426.47
2022-10-16T17:54:01.247Z,99429.25
2022-10-16T17:58:02.861Z,99434.66
2022-10-16T18:02:04.203Z,99432.94
2022-10-16T18:06:05.784Z,99440.06
2022-10-16T18:10:11.850Z,99441.03
2022-10-16T18:14:15.349Z,99450.72
2022-10-16T18:18:16.585Z,99454.31
2022-10-16T18:22:17.895Z,99460.47
2022-10-16T18:26:19.875Z,99461.50
2022-10-16T18:30:21.494Z,99459.84
2022-10-16T18:34:23.005Z,99467.78
2022-10-16T18:38:24.381Z,99464.41
2022-10-16T18:42:25.697Z,99460.19
2022-10-16T18:46:27.124Z,99469.84
2022-10-16T18:50:28.386Z,99471.69
2022-10-16T18:54:30.130Z,99475.28
2022-10-16T18:58:31.821Z,99476.25
2022-10-16T19:06:44.876Z,99485.19
2022-10-16T19:10:46.563Z,99474.88
2022-10-16T19:14:48.773Z,99479.34
2022-10-16T19:18:51.528Z,99493.34
2022-10-16T19:22:56.546Z,99493.38
2022-10-16T19:26:57.859Z,99496.03
2022-10-16T19:31:03.001Z,99491.75
2022-10-16T19:35:04.398Z,99497.03
2022-10-16T19:39:06.988Z,99492.69
2022-10-16T19:43:08.301Z,99497.16
2022-10-16T19:47:09.632Z,99487.69
2022-10-16T19:51:13.154Z,99493.00
2022-10-16T19:55:14.745Z,99494.88
2022-10-16T19:59:19.105Z,99502.84
2022-10-16T20:03:20.460Z,99511.63
2022-10-16T20:07:22.980Z,99517.75
2022-10-16T20:11:25.792Z,99516.94
2022-10-16T20:15:27.080Z,99520.44
2022-10-16T20:19:28.508Z,99527.44
2022-10-16T20:23:29.829Z,99531.91
2022-10-16T20:27:31.304Z,99533.69
2022-10-16T20:31:33.544Z,99524.19
2022-10-16T20:35:36.100Z,99528.63
2022-10-16T20:39:37.825Z,99531.31
2022-10-16T20:43:40.731Z,99535.72
2022-10-16T20:47:42.512Z,99541.00
2022-10-16T20:51:43.974Z,99541.09
2022-10-16T20:55:45.589Z,99528.09
2022-10-16T20:59:48.569Z,99538.59
2022-10-16T21:03:51.470Z,99539.53
2022-10-16T21:07:52.700Z,99541.31
2022-10-16T21:11:54.065Z,99542.25
2022-10-16T21:15:55.325Z,99542.31
2022-10-16T21:19:57.061Z,99552.72
2022-10-16T21:23:58.932Z,99563.19
2022-10-16T21:28:00.341Z,99558.91
2022-10-16T21:32:01.838Z,99564.16
2022-10-16T21:36:11.602Z,99563.31
2022-10-16T21:40:12.856Z,99565.16
2022-10-16T21:44:14.585Z,99565.22
2022-10-16T21:48:15.929Z,99559.19
2022-10-16T21:52:17.263Z,99559.19
2022-10-16T21:56:18.492Z,99563.50
2022-10-16T22:00:20.216Z,99560.94
2022-10-16T22:04:21.464Z,99558.38
2022-10-16T22:08:22.786Z,99563.59
2022-10-16T22:12:24.092Z,99560.97
2022-10-16T22:16:27.842Z,99567.06
2022-10-16T22:20:29.134Z,99570.53
2022-10-16T22:24:30.485Z,99572.25
2022-10-16T22:28:31.804Z,99579.25
2022-10-16T22:32:33.652Z,99575.78
2022-10-16T22:36:35.069Z,99574.91
2022-10-16T22:40:37.689Z,99573.22
2022-10-16T22:44:38.933Z,99579.28
2022-10-16T22:48:40.848Z,99576.66
2022-10-16T22:52:42.154Z,99586.09
2022-10-16T22:56:43.864Z,99588.66
2022-10-16T23:00:45.301Z,99596.47
2022-10-16T23:04:46.727Z,99605.13
2022-10-16T23:08:52.530Z,99617.38
2022-10-16T23:12:53.968Z,99615.69
2022-10-16T23:16:55.236Z,99614.00
2022-10-16T23:20:56.813Z,99620.13
2022-10-16T23:24:58.084Z,99611.47
2022-10-16T23:28:59.436Z,99618.50
2022-10-16T23:37:07.639Z,99631.56
2022-10-16T23:41:09.870Z,99635.03
2022-10-16T23:45:11.353Z,99635.06
2022-10-16T23:49:12.813Z,99640.25
2022-10-16T23:53:14.181Z,99648.09
2022-10-16T23:57:15.476Z,99653.28
